createdAt,value
2016-09-04T00:00:55.970Z,957.00
2016-09-04T00:01:45.294Z,956.93
2016-09-04T00:02:49.883Z,956.92
2016-09-04T00:03:51.693Z,956.93
2016-09-04T00:04:50.668Z,956.90
2016-09-04T00:05:45.719Z,956.89
2016-09-04T00:06:50.541Z,956.83
2016-09-04T00:07:45.948Z,956.87
2016-09-04T00:08:44.794Z,956.86
2016-09-04T00:09:45.976Z,956.83
2016-09-04T00:10:36.444Z,956.82
2016-09-04T00:11:43.918Z,956.85
2016-09-04T00:12:57.302Z,956.84
2016-09-04T00:13:49.040Z,956.87
2016-09-04T00:14:45.963Z,956.84
2016-09-04T00:15:44.467Z,956.86
2016-09-04T00:16:40.254Z,956.83
2016-09-04T00:17:49.095Z,956.81
2016-09-04T00:18:50.688Z,956.83
2016-09-04T00:19:45.204Z,956.80
2016-09-04T00:20:40.059Z,956.78
2016-09-04T00:21:40.633Z,956.79
2016-09-04T00:22:50.129Z,956.78
2016-09-04T00:23:43.093Z,956.74
2016-09-04T00:24:45.599Z,956.81
2016-09-04T00:25:51.571Z,956.77
2016-09-04T00:26:37.877Z,956.76
2016-09-04T00:27:48.739Z,956.74
2016-09-04T00:28:40.337Z,956.77
2016-09-04T00:29:43.072Z,956.76
2016-09-04T00:30:49.419Z,956.71
2016-09-04T00:31:53.897Z,956.71
2016-09-04T00:32:49.780Z,956.70
2016-09-04T00:33:56.972Z,956.67
2016-09-04T00:34:56.847Z,956.69
2016-09-04T00:35:48.833Z,956.70
2016-09-04T00:36:42.951Z,956.76
2016-09-04T00:37:46.139Z,956.69
2016-09-04T00:38:45.231Z,956.59
2016-09-04T00:39:50.845Z,956.62
2016-09-04T00:40:57.341Z,956.59
2016-09-04T00:41:45.868Z,956.60
2016-09-04T00:42:34.697Z,956.59
2016-09-04T00:43:51.656Z,956.57
2016-09-04T00:44:48.306Z,956.59
2016-09-04T00:45:30.745Z,956.54
2016-09-04T00:46:33.249Z,956.51
2016-09-04T00:47:50.596Z,956.53
2016-09-04T00:48:50.856Z,956.52
2016-09-04T00:49:51.615Z,956.52
2016-09-04T00:50:44.663Z,956.54
2016-09-04T00:51:49.948Z,956.54
2016-09-04T00:52:55.250Z,956.52
2016-09-04T00:53:27.960Z,956.52
2016-09-04T00:54:45.993Z,956.52
2016-09-04T00:55:51.640Z,956.52
2016-09-04T00:56:46.446Z,956.50
2016-09-04T00:57:39.625Z,956.57
2016-09-04T00:58:37.485Z,956.55
2016-09-04T00:59:48.838Z,956.56
2016-09-04T01:00:34.723Z,956.55
2016-09-04T01:01:45.560Z,956.56
2016-09-04T01:02:57.564Z,956.56
2016-09-04T01:03:51.073Z,956.58
2016-09-04T01:04:44.655Z,956.54
2016-09-04T01:05:35.162Z,956.57
2016-09-04T01:06:44.186Z,956.55
2016-09-04T01:07:44.484Z,956.55
2016-09-04T01:08:49.924Z,956.58
2016-09-04T01:09:45.413Z,956.56
2016-09-04T01:10:34.343Z,956.57
2016-09-04T01:11:15.208Z,956.55
2016-09-04T01:12:45.767Z,956.55
2016-09-04T01:13:45.453Z,956.54
2016-09-04T01:14:44.624Z,956.54
2016-09-04T01:15:45.498Z,956.49
2016-09-04T01:16:50.664Z,956.53
2016-09-04T01:17:56.027Z,956.51
2016-09-04T01:18:59.331Z,956.54
2016-09-04T01:19:58.392Z,956.53
2016-09-04T01:20:43.723Z,956.53
2016-09-04T01:21:51.308Z,956.52
2016-09-04T01:22:44.971Z,956.51
2016-09-04T01:23:44.562Z,956.53
2016-09-04T01:24:45.876Z,956.53
2016-09-04T01:25:41.946Z,956.54
2016-09-04T01:26:49.617Z,956.53
2016-09-04T01:27:54.406Z,956.51
2016-09-04T01:28:32.909Z,956.50
2016-09-04T01:29:47.313Z,956.52
2016-09-04T01:30:50.138Z,956.49
2016-09-04T01:31:41.102Z,956.48
2016-09-04T01:32:42.778Z,956.49
2016-09-04T01:33:47.186Z,956.49
2016-09-04T01:34:49.230Z,956.46
2016-09-04T01:35:40.523Z,956.50
2016-09-04T01:36:50.232Z,956.47
2016-09-04T01:37:45.789Z,956.49
2016-09-04T01:38:37.139Z,956.46
2016-09-04T01:39:39.639Z,956.51
2016-09-04T01:40:45.447Z,956.49
2016-09-04T01:41:50.696Z,956.52
2016-09-04T01:42:45.853Z,956.52
2016-09-04T01:43:49.618Z,956.48
2016-09-04T01:44:44.634Z,956.50
2016-09-04T01:45:40.472Z,956.49
2016-09-04T01:46:50.657Z,956.45
2016-09-04T01:47:44.984Z,956.47
2016-09-04T01:48:54.564Z,956.42
2016-09-04T01:49:49.287Z,956.40
2016-09-04T01:50:37.316Z,956.42
2016-09-04T01:51:43.654Z,956.41
2016-09-04T01:52:56.159Z,956.37
2016-09-04T01:53:41.398Z,956.38
2016-09-04T01:54:43.394Z,956.36
2016-09-04T01:55:39.268Z,956.41
2016-09-04T01:56:50.499Z,956.39
2016-09-04T01:57:34.994Z,956.42
2016-09-04T01:58:50.975Z,956.39
2016-09-04T01:59:49.300Z,956.43
2016-09-04T02:00:44.668Z,956.40
2016-09-04T02:01:48.852Z,956.40
2016-09-04T02:02:50.946Z,956.35
2016-09-04T02:03:51.065Z,956.36
2016-09-04T02:04:45.499Z,956.34
2016-09-04T02:05:44.915Z,956.36
2016-09-04T02:06:45.317Z,956.36
2016-09-04T02:07:46.870Z,956.34
2016-09-04T02:08:49.214Z,956.32
2016-09-04T02:09:50.145Z,956.31
2016-09-04T02:10:46.093Z,956.31
2016-09-04T02:11:43.112Z,956.24
2016-09-04T02:12:50.501Z,956.22
2016-09-04T02:13:44.225Z,956.23
2016-09-04T02:14:43.301Z,956.23
2016-09-04T02:15:44.256Z,956.17
2016-09-04T02:16:25.793Z,956.15
2016-09-04T02:17:45.517Z,956.14
2016-09-04T02:18:50.885Z,956.16
2016-09-04T02:19:45.574Z,956.14
2016-09-04T02:20:45.966Z,956.11
2016-09-04T02:21:35.898Z,956.14
2016-09-04T02:22:40.236Z,956.11
2016-09-04T02:23:45.429Z,956.10
2016-09-04T02:24:51.446Z,956.09
2016-09-04T02:25:45.052Z,956.07
2016-09-04T02:26:40.223Z,956.09
2016-09-04T02:27:54.576Z,956.08
2016-09-04T02:28:39.826Z,956.08
2016-09-04T02:29:45.694Z,956.12
2016-09-04T02:30:33.747Z,956.09
2016-09-04T02:31:45.950Z,956.08
2016-09-04T02:32:53.823Z,956.06
2016-09-04T02:33:40.291Z,956.06
2016-09-04T02:34:43.908Z,956.06
2016-09-04T02:35:46.101Z,956.05
2016-09-04T02:36:44.942Z,956.06
2016-09-04T02:37:40.757Z,956.10
2016-09-04T02:38:46.186Z,956.08
2016-09-04T02:39:45.205Z,956.10
2016-09-04T02:40:43.072Z,956.13
2016-09-04T02:41:45.767Z,956.11
2016-09-04T02:42:49.062Z,956.10
2016-09-04T02:43:40.444Z,956.11
2016-09-04T02:44:50.096Z,956.13
2016-09-04T02:45:29.003Z,956.12
2016-09-04T02:46:55.592Z,956.17
2016-09-04T02:47:37.769Z,956.15
2016-09-04T02:48:45.727Z,956.16
2016-09-04T02:49:49.602Z,956.17
2016-09-04T02:50:45.139Z,956.17
2016-09-04T02:51:54.302Z,956.18
2016-09-04T02:52:45.872Z,956.16
2016-09-04T02:53:55.224Z,956.15
2016-09-04T02:54:49.231Z,956.13
2016-09-04T02:55:51.435Z,956.14
2016-09-04T02:56:50.420Z,956.11
2016-09-04T02:57:44.249Z,956.13
2016-09-04T02:58:45.090Z,956.16
2016-09-04T02:59:34.829Z,956.13
2016-09-04T03:00:45.715Z,956.12
2016-09-04T03:01:36.903Z,956.12
2016-09-04T03:02:44.667Z,956.10
2016-09-04T03:03:49.256Z,956.07
2016-09-04T03:04:45.241Z,956.12
2016-09-04T03:05:38.402Z,956.15
2016-09-04T03:06:33.986Z,956.12
2016-09-04T03:07:40.486Z,956.08
2016-09-04T03:08:44.920Z,956.08
2016-09-04T03:09:14.686Z,956.07
2016-09-04T03:10:43.383Z,956.08
2016-09-04T03:11:44.330Z,956.05
2016-09-04T03:12:52.244Z,956.06
2016-09-04T03:13:43.984Z,956.11
2016-09-04T03:14:39.891Z,956.05
2016-09-04T03:15:43.870Z,956.10
2016-09-04T03:16:45.367Z,956.07
2016-09-04T03:17:34.716Z,956.06
2016-09-04T03:18:48.825Z,956.09
2016-09-04T03:19:32.959Z,956.08
2016-09-04T03:20:50.457Z,956.08
2016-09-04T03:21:50.114Z,956.09
2016-09-04T03:22:45.232Z,956.08
2016-09-04T03:23:45.649Z,956.07
2016-09-04T03:24:49.092Z,956.10
2016-09-04T03:25:40.782Z,956.12
2016-09-04T03:26:44.788Z,956.10
2016-09-04T03:27:34.606Z,956.13
2016-09-04T03:28:51.435Z,956.13
2016-09-04T03:29:41.402Z,956.14
2016-09-04T03:30:45.119Z,956.15
2016-09-04T03:31:40.592Z,956.12
2016-09-04T03:32:45.454Z,956.11
2016-09-04T03:33:50.572Z,956.11
2016-09-04T03:34:43.782Z,956.07
2016-09-04T03:35:36.564Z,956.10
2016-09-04T03:36:39.506Z,956.08
2016-09-04T03:37:45.926Z,956.10
2016-09-04T03:38:50.741Z,956.05
2016-09-04T03:39:53.707Z,956.11
2016-09-04T03:40:45.853Z,956.08
2016-09-04T03:41:46.259Z,956.06
2016-09-04T03:42:49.703Z,956.07
2016-09-04T03:43:44.747Z,956.11
2016-09-04T03:44:45.824Z,956.10
2016-09-04T03:45:44.305Z,956.12
2016-09-04T03:46:46.011Z,956.10
2016-09-04T03:47:45.757Z,956.08
2016-09-04T03:48:56.927Z,956.09
2016-09-04T03:49:46.026Z,956.09
2016-09-04T03:50:14.821Z,956.12
2016-09-04T03:51:49.004Z,956.13
2016-09-04T03:52:46.253Z,956.15
2016-09-04T03:53:45.740Z,956.12
2016-09-04T03:54:50.015Z,956.12
2016-09-04T03:55:50.613Z,956.12
2016-09-04T03:56:46.019Z,956.12
2016-09-04T03:57:44.955Z,956.12
2016-09-04T03:58:45.115Z,956.14
2016-09-04T03:59:46.150Z,956.17
2016-09-04T04:00:46.093Z,956.19
2016-09-04T04:01:33.477Z,956.18
2016-09-04T04:02:46.206Z,956.17
2016-09-04T04:03:45.603Z,956.15
2016-09-04T04:04:45.112Z,956.15
2016-09-04T04:05:45.257Z,956.15
2016-09-04T04:06:50.366Z,956.15
2016-09-04T04:07:40.816Z,956.14
2016-09-04T04:08:46.380Z,956.13
2016-09-04T04:09:44.724Z,956.10
2016-09-04T04:10:40.669Z,956.11
2016-09-04T04:11:43.373Z,956.14
2016-09-04T04:12:49.533Z,956.15
2016-09-04T04:13:41.116Z,956.15
2016-09-04T04:15:15.796Z,956.15
2016-09-04T04:15:48.863Z,956.18
2016-09-04T04:16:44.249Z,956.14
2016-09-04T04:17:45.235Z,956.22
2016-09-04T04:18:44.373Z,956.19
2016-09-04T04:19:37.875Z,956.15
2016-09-04T04:20:45.675Z,956.15
2016-09-04T04:21:51.121Z,956.15
2016-09-04T04:22:44.898Z,956.18
2016-09-04T04:23:56.417Z,956.18
2016-09-04T04:24:52.460Z,956.17
2016-09-04T04:26:02.448Z,956.21
2016-09-04T04:26:51.636Z,956.20
2016-09-04T04:27:34.746Z,956.21
2016-09-04T04:28:40.176Z,956.15
2016-09-04T04:29:15.217Z,956.21
2016-09-04T04:30:45.831Z,956.20
2016-09-04T04:31:32.826Z,956.18
2016-09-04T04:32:44.083Z,956.19
2016-09-04T04:33:40.548Z,956.20
2016-09-04T04:34:45.300Z,956.21
2016-09-04T04:35:50.599Z,956.19
2016-09-04T04:36:45.316Z,956.18
2016-09-04T04:37:50.551Z,956.21
2016-09-04T04:38:45.816Z,956.18
2016-09-04T04:39:56.831Z,956.20
2016-09-04T04:40:56.201Z,956.19
2016-09-04T04:41:33.738Z,956.24
2016-09-04T04:42:14.385Z,956.25
2016-09-04T04:43:44.977Z,956.24
2016-09-04T04:44:40.492Z,956.20
2016-09-04T04:45:34.482Z,956.25
2016-09-04T04:46:45.291Z,956.27
2016-09-04T04:47:51.672Z,956.28
2016-09-04T04:48:44.184Z,956.31
2016-09-04T04:49:46.249Z,956.32
2016-09-04T04:50:38.832Z,956.34
2016-09-04T04:51:44.944Z,956.34
2016-09-04T04:52:50.415Z,956.34
2016-09-04T04:53:45.474Z,956.32
2016-09-04T04:54:49.346Z,956.34
2016-09-04T04:55:45.528Z,956.36
2016-09-04T04:56:46.421Z,956.33
2016-09-04T04:57:40.755Z,956.35
2016-09-04T04:58:51.488Z,956.36
2016-09-04T04:59:52.670Z,956.36
2016-09-04T05:00:44.871Z,956.34
2016-09-04T05:02:01.232Z,956.36
2016-09-04T05:02:45.993Z,956.32
2016-09-04T05:03:45.093Z,956.36
2016-09-04T05:04:45.919Z,956.32
2016-09-04T05:05:45.677Z,956.33
2016-09-04T05:06:44.666Z,956.27
2016-09-04T05:07:36.655Z,956.36
2016-09-04T05:08:15.372Z,956.39
2016-09-04T05:09:45.615Z,956.27
2016-09-04T05:10:50.067Z,956.29
2016-09-04T05:11:39.938Z,956.27
2016-09-04T05:12:45.555Z,956.26
2016-09-04T05:13:40.367Z,956.26
2016-09-04T05:14:44.966Z,956.26
2016-09-04T05:15:16.281Z,956.26
2016-09-04T05:16:46.205Z,956.24
2016-09-04T05:17:51.112Z,956.28
2016-09-04T05:18:50.858Z,956.25
2016-09-04T05:19:50.055Z,956.30
2016-09-04T05:20:46.256Z,956.28
2016-09-04T05:21:38.629Z,956.27
2016-09-04T05:22:45.762Z,956.34
2016-09-04T05:23:54.665Z,956.30
2016-09-04T05:24:45.201Z,956.29
2016-09-04T05:25:39.887Z,956.30
2016-09-04T05:26:50.101Z,956.35
2016-09-04T05:27:56.047Z,956.29
2016-09-04T05:28:45.164Z,956.28
2016-09-04T05:29:45.170Z,956.29
2016-09-04T05:30:57.281Z,956.30
2016-09-04T05:31:46.344Z,956.33
2016-09-04T05:32:43.540Z,956.29
2016-09-04T05:33:45.677Z,956.26
2016-09-04T05:34:40.225Z,956.25
2016-09-04T05:35:43.022Z,956.27
2016-09-04T05:36:52.385Z,956.28
2016-09-04T05:37:44.618Z,956.24
2016-09-04T05:38:45.545Z,956.29
2016-09-04T05:39:49.477Z,956.26
2016-09-04T05:40:35.256Z,956.26
2016-09-04T05:41:44.373Z,956.26
2016-09-04T05:42:45.690Z,956.29
2016-09-04T05:43:50.287Z,956.26
2016-09-04T05:44:40.871Z,956.29
2016-09-04T05:45:17.162Z,956.29
2016-09-04T05:46:45.112Z,956.31
2016-09-04T05:47:50.710Z,956.29
2016-09-04T05:48:32.790Z,956.27
2016-09-04T05:49:45.423Z,956.28
2016-09-04T05:50:46.025Z,956.21
2016-09-04T05:51:52.330Z,956.27
2016-09-04T05:52:55.815Z,956.24
2016-09-04T05:53:45.525Z,956.24
2016-09-04T05:54:35.397Z,956.24
2016-09-04T05:56:03.284Z,956.24
2016-09-04T05:56:40.429Z,956.24
2016-09-04T05:57:50.116Z,956.23
2016-09-04T05:58:54.599Z,956.24
2016-09-04T05:59:44.653Z,956.22
2016-09-04T06:00:46.090Z,956.25
2016-09-04T06:01:45.840Z,956.24
2016-09-04T06:02:26.295Z,956.29
2016-09-04T06:03:43.695Z,956.29
2016-09-04T06:04:39.887Z,956.29
2016-09-04T06:05:51.237Z,956.32
2016-09-04T06:06:45.970Z,956.33
2016-09-04T06:07:45.455Z,956.28
2016-09-04T06:08:44.984Z,956.29
2016-09-04T06:09:43.948Z,956.33
2016-09-04T06:10:50.058Z,956.30
2016-09-04T06:11:45.351Z,956.36
2016-09-04T06:12:35.114Z,956.34
2016-09-04T06:13:46.253Z,956.33
2016-09-04T06:14:45.343Z,956.31
2016-09-04T06:15:34.282Z,956.34
2016-09-04T06:16:50.740Z,956.32
2016-09-04T06:17:39.627Z,956.32
2016-09-04T06:18:40.453Z,956.34
2016-09-04T06:19:51.043Z,956.32
2016-09-04T06:20:45.669Z,956.30
2016-09-04T06:21:12.631Z,956.30
2016-09-04T06:22:44.427Z,956.33
2016-09-04T06:23:45.070Z,956.33
2016-09-04T06:24:39.913Z,956.32
2016-09-04T06:25:51.182Z,956.32
2016-09-04T06:26:40.269Z,956.32
2016-09-04T06:27:49.600Z,956.30
2016-09-04T06:28:37.735Z,956.29
2016-09-04T06:29:46.294Z,956.33
2016-09-04T06:30:45.171Z,956.30
2016-09-04T06:31:47.945Z,956.30
2016-09-04T06:32:45.475Z,956.32
2016-09-04T06:33:44.210Z,956.32
2016-09-04T06:34:46.027Z,956.31
2016-09-04T06:35:41.013Z,956.30
2016-09-04T06:36:40.608Z,956.27
2016-09-04T06:37:45.078Z,956.30
2016-09-04T06:38:45.884Z,956.29
2016-09-04T06:39:44.229Z,956.21
2016-09-04T06:40:50.804Z,956.18
2016-09-04T06:41:51.231Z,956.17
2016-09-04T06:42:45.292Z,956.12
2016-09-04T06:43:50.337Z,956.12
2016-09-04T06:44:45.461Z,956.10
2016-09-04T06:45:35.368Z,956.07
2016-09-04T06:46:37.761Z,956.05
2016-09-04T06:47:45.391Z,956.09
2016-09-04T06:48:46.012Z,956.09
2016-09-04T06:49:45.932Z,956.10
2016-09-04T06:50:49.871Z,956.08
2016-09-04T06:51:45.517Z,956.05
2016-09-04T06:52:40.161Z,956.05
2016-09-04T06:53:39.477Z,956.06
2016-09-04T06:54:44.137Z,956.07
2016-09-04T06:55:50.010Z,956.02
2016-09-04T06:56:45.248Z,956.02
2016-09-04T06:57:46.943Z,955.99
2016-09-04T06:58:51.900Z,955.96
2016-09-04T06:59:44.396Z,955.95
2016-09-04T07:00:57.752Z,955.91
2016-09-04T07:01:51.489Z,955.87
2016-09-04T07:02:39.943Z,955.83
2016-09-04T07:03:50.410Z,955.84
2016-09-04T07:04:46.249Z,955.84
2016-09-04T07:05:49.631Z,955.82
2016-09-04T07:06:44.523Z,955.81
2016-09-04T07:07:34.444Z,955.78
2016-09-04T07:08:36.882Z,955.76
2016-09-04T07:09:50.591Z,955.76
2016-09-04T07:10:48.876Z,955.72
2016-09-04T07:11:50.284Z,955.75
2016-09-04T07:12:35.027Z,955.77
2016-09-04T07:13:45.687Z,955.78
2016-09-04T07:14:51.450Z,955.76
2016-09-04T07:15:44.506Z,955.74
2016-09-04T07:16:46.317Z,955.69
2016-09-04T07:17:51.517Z,955.69
2016-09-04T07:18:50.657Z,955.68
2016-09-04T07:19:46.249Z,955.71
2016-09-04T07:20:46.143Z,955.69
2016-09-04T07:21:46.155Z,955.65
2016-09-04T07:22:45.433Z,955.66
2016-09-04T07:23:42.157Z,955.67
2016-09-04T07:24:50.912Z,955.65
2016-09-04T07:25:48.812Z,955.67
2016-09-04T07:26:33.139Z,955.66
2016-09-04T07:27:39.964Z,955.67
2016-09-04T07:28:50.505Z,955.62
2016-09-04T07:29:45.683Z,955.63
2016-09-04T07:30:41.441Z,955.61
2016-09-04T07:31:39.197Z,955.60
2016-09-04T07:32:43.583Z,955.60
2016-09-04T07:33:33.510Z,955.59
2016-09-04T07:34:52.461Z,955.62
2016-09-04T07:35:40.497Z,955.60
2016-09-04T07:36:49.095Z,955.60
2016-09-04T07:37:40.889Z,955.53
2016-09-04T07:38:20.982Z,955.56
2016-09-04T07:39:31.758Z,955.51
2016-09-04T07:40:46.294Z,955.49
2016-09-04T07:41:44.187Z,955.46
2016-09-04T07:42:45.888Z,955.44
2016-09-04T07:43:38.377Z,955.42
2016-09-04T07:44:45.397Z,955.42
2016-09-04T07:45:46.351Z,955.43
2016-09-04T07:46:35.762Z,955.44
2016-09-04T07:47:39.997Z,955.46
2016-09-04T07:48:33.907Z,955.47
2016-09-04T07:49:39.634Z,955.55
2016-09-04T07:50:46.069Z,955.51
2016-09-04T07:51:44.764Z,955.50
2016-09-04T07:52:45.733Z,955.52
2016-09-04T07:53:43.160Z,955.55
2016-09-04T07:54:41.516Z,955.50
2016-09-04T07:55:45.225Z,955.59
2016-09-04T07:56:46.038Z,955.57
2016-09-04T07:57:50.086Z,955.58
2016-09-04T07:58:45.880Z,955.53
2016-09-04T07:59:43.534Z,955.51
2016-09-04T08:00:34.734Z,955.53
2016-09-04T08:01:32.917Z,955.49
2016-09-04T08:02:37.394Z,955.49
2016-09-04T08:03:45.270Z,955.49
2016-09-04T08:04:46.991Z,955.46
2016-09-04T08:05:59.647Z,955.50
2016-09-04T08:06:47.678Z,955.44
2016-09-04T08:07:32.993Z,955.48
2016-09-04T08:08:42.136Z,955.48
2016-09-04T08:09:45.373Z,955.48
2016-09-04T08:10:45.330Z,955.52
2016-09-04T08:11:49.277Z,955.51
2016-09-04T08:12:46.389Z,955.49
2016-09-04T08:13:47.527Z,955.49
2016-09-04T08:14:45.065Z,955.49
2016-09-04T08:15:50.132Z,955.50
2016-09-04T08:16:39.910Z,955.55
2016-09-04T08:17:37.817Z,955.58
2016-09-04T08:18:40.775Z,955.59
2016-09-04T08:19:37.333Z,955.62
2016-09-04T08:20:39.038Z,955.59
2016-09-04T08:21:47.723Z,955.61
2016-09-04T08:22:58.257Z,955.63
2016-09-04T08:23:42.644Z,955.68
2016-09-04T08:24:45.132Z,955.66
2016-09-04T08:25:46.203Z,955.66
2016-09-04T08:26:37.623Z,955.67
2016-09-04T08:27:46.394Z,955.66
2016-09-04T08:28:41.024Z,955.63
2016-09-04T08:29:44.571Z,955.61
2016-09-04T08:30:45.146Z,955.56
2016-09-04T08:31:51.092Z,955.57
2016-09-04T08:32:38.867Z,955.55
2016-09-04T08:33:55.939Z,955.58
2016-09-04T08:34:33.003Z,955.56
2016-09-04T08:35:44.246Z,955.52
2016-09-04T08:36:43.700Z,955.57
2016-09-04T08:37:43.194Z,955.59
2016-09-04T08:38:44.284Z,955.59
2016-09-04T08:39:21.910Z,955.55
2016-09-04T08:40:57.425Z,955.57
2016-09-04T08:41:58.030Z,955.58
2016-09-04T08:42:51.534Z,955.55
2016-09-04T08:43:31.788Z,955.57
2016-09-04T08:44:44.794Z,955.58
2016-09-04T08:45:39.754Z,955.53
2016-09-04T08:46:46.196Z,955.54
2016-09-04T08:47:42.187Z,955.57
2016-09-04T08:48:46.220Z,955.51
2016-09-04T08:49:56.986Z,955.55
2016-09-04T08:50:34.947Z,955.54
2016-09-04T08:51:33.002Z,955.54
2016-09-04T08:52:51.186Z,955.55
2016-09-04T08:53:51.343Z,955.55
2016-09-04T08:54:44.945Z,955.57
2016-09-04T08:55:33.453Z,955.56
2016-09-04T08:56:44.964Z,955.59
2016-09-04T08:57:49.903Z,955.56
2016-09-04T08:58:38.484Z,955.64
2016-09-04T08:59:49.642Z,955.57
2016-09-04T09:00:46.034Z,955.53
2016-09-04T09:01:50.155Z,955.54
2016-09-04T09:02:42.150Z,955.57
2016-09-04T09:03:44.635Z,955.56
2016-09-04T09:04:50.373Z,955.57
2016-09-04T09:05:44.605Z,955.62
2016-09-04T09:06:36.255Z,955.63
2016-09-04T09:07:52.415Z,955.61
2016-09-04T09:08:43.709Z,955.62
2016-09-04T09:09:44.905Z,955.64
2016-09-04T09:10:43.113Z,955.64
2016-09-04T09:11:34.691Z,955.60
2016-09-04T09:12:50.170Z,955.60
2016-09-04T09:13:45.721Z,955.62
2016-09-04T09:14:45.847Z,955.60
2016-09-04T09:15:44.514Z,955.62
2016-09-04T09:16:34.414Z,955.63
2016-09-04T09:17:45.734Z,955.61
2016-09-04T09:18:40.354Z,955.62
2016-09-04T09:19:37.213Z,955.63
2016-09-04T09:20:36.759Z,955.61
2016-09-04T09:21:49.939Z,955.62
2016-09-04T09:22:49.089Z,955.62
2016-09-04T09:23:35.952Z,955.66
2016-09-04T09:24:45.737Z,955.62
2016-09-04T09:25:38.448Z,955.60
2016-09-04T09:26:50.085Z,955.61
2016-09-04T09:27:40.357Z,955.57
2016-09-04T09:28:45.302Z,955.57
2016-09-04T09:29:50.604Z,955.55
2016-09-04T09:30:44.080Z,955.50
2016-09-04T09:31:37.561Z,955.50
2016-09-04T09:32:57.149Z,955.48
2016-09-04T09:33:37.076Z,955.46
2016-09-04T09:34:46.291Z,955.47
2016-09-04T09:35:53.865Z,955.50
2016-09-04T09:37:21.524Z,955.49
2016-09-04T09:37:38.890Z,955.49
2016-09-04T09:38:53.764Z,955.46
2016-09-04T09:39:45.344Z,955.49
2016-09-04T09:40:49.139Z,955.47
2016-09-04T09:41:33.685Z,955.47
2016-09-04T09:42:46.077Z,955.49
2016-09-04T09:43:46.500Z,955.47
2016-09-04T09:44:56.465Z,955.45
2016-09-04T09:45:40.530Z,955.46
2016-09-04T09:46:54.186Z,955.39
2016-09-04T09:47:52.279Z,955.41
2016-09-04T09:48:49.783Z,955.35
2016-09-04T09:49:41.606Z,955.39
2016-09-04T09:50:53.857Z,955.34
2016-09-04T09:51:44.619Z,955.31
2016-09-04T09:52:49.816Z,955.30
2016-09-04T09:53:51.586Z,955.31
2016-09-04T09:54:49.691Z,955.33
2016-09-04T09:55:45.203Z,955.33
2016-09-04T09:56:45.334Z,955.31
2016-09-04T09:57:49.324Z,955.36
2016-09-04T09:58:46.269Z,955.37
2016-09-04T09:59:50.000Z,955.38
2016-09-04T10:00:46.274Z,955.36
2016-09-04T10:01:42.737Z,955.34
2016-09-04T10:02:40.528Z,955.35
2016-09-04T10:03:40.915Z,955.34
2016-09-04T10:04:43.975Z,955.33
2016-09-04T10:05:53.149Z,955.35
2016-09-04T10:06:44.348Z,955.36
2016-09-04T10:07:35.183Z,955.33
2016-09-04T10:08:49.131Z,955.35
2016-09-04T10:09:45.150Z,955.31
2016-09-04T10:10:33.910Z,955.34
2016-09-04T10:11:39.846Z,955.35
2016-09-04T10:12:38.393Z,955.32
2016-09-04T10:13:44.183Z,955.36
2016-09-04T10:14:44.289Z,955.33
2016-09-04T10:15:53.902Z,955.37
2016-09-04T10:16:47.998Z,955.36
2016-09-04T10:17:51.072Z,955.44
2016-09-04T10:18:45.590Z,955.33
2016-09-04T10:19:45.509Z,955.37
2016-09-04T10:20:45.127Z,955.33
2016-09-04T10:21:40.635Z,955.37
2016-09-04T10:22:50.173Z,955.42
2016-09-04T10:23:44.563Z,955.45
2016-09-04T10:24:40.512Z,955.41
2016-09-04T10:25:44.356Z,955.37
2016-09-04T10:26:51.480Z,955.29
2016-09-04T10:27:51.257Z,955.31
2016-09-04T10:28:44.408Z,955.31
2016-09-04T10:29:54.906Z,955.36
2016-09-04T10:30:49.781Z,955.35
2016-09-04T10:31:40.781Z,955.32
2016-09-04T10:32:37.522Z,955.33
2016-09-04T10:33:49.942Z,955.31
2016-09-04T10:34:26.017Z,955.26
2016-09-04T10:35:45.130Z,955.30
2016-09-04T10:36:44.289Z,955.27
2016-09-04T10:37:44.618Z,955.29
2016-09-04T10:38:50.679Z,955.32
2016-09-04T10:39:46.456Z,955.32
2016-09-04T10:40:46.060Z,955.32
2016-09-04T10:41:50.015Z,955.32
2016-09-04T10:42:43.968Z,955.22
2016-09-04T10:43:51.513Z,955.21
2016-09-04T10:44:44.064Z,955.25
2016-09-04T10:45:50.270Z,955.25
2016-09-04T10:46:50.890Z,955.21
2016-09-04T10:47:33.939Z,955.27
2016-09-04T10:48:43.653Z,955.23
2016-09-04T10:49:50.325Z,955.23
2016-09-04T10:50:49.509Z,955.29
2016-09-04T10:51:41.813Z,955.25
2016-09-04T10:52:44.855Z,955.25
2016-09-04T10:53:46.363Z,955.20
2016-09-04T10:54:51.554Z,955.12
2016-09-04T10:55:49.253Z,955.22
2016-09-04T10:56:43.055Z,955.16
2016-09-04T10:57:50.276Z,955.17
2016-09-04T10:58:49.197Z,955.16
2016-09-04T10:59:46.191Z,955.18
2016-09-04T11:00:43.738Z,955.13
2016-09-04T11:01:45.220Z,955.13
2016-09-04T11:02:55.504Z,955.10
2016-09-04T11:03:44.763Z,955.11
2016-09-04T11:04:45.260Z,955.08
2016-09-04T11:05:45.321Z,955.07
2016-09-04T11:06:50.766Z,955.03
2016-09-04T11:07:45.834Z,955.05
2016-09-04T11:08:49.945Z,955.07
2016-09-04T11:09:45.253Z,954.98
2016-09-04T11:10:51.786Z,955.02
2016-09-04T11:11:43.751Z,954.98
2016-09-04T11:12:51.611Z,954.98
2016-09-04T11:13:43.480Z,954.93
2016-09-04T11:14:37.713Z,955.01
2016-09-04T11:15:46.462Z,954.99
2016-09-04T11:16:37.696Z,954.98
2016-09-04T11:17:31.639Z,954.93
2016-09-04T11:18:51.649Z,954.93
2016-09-04T11:19:46.286Z,954.95
2016-09-04T11:20:51.651Z,954.96
2016-09-04T11:21:50.596Z,954.91
2016-09-04T11:22:46.146Z,954.94
2016-09-04T11:23:57.694Z,955.00
2016-09-04T11:24:57.387Z,954.95
2016-09-04T11:25:37.659Z,954.94
2016-09-04T11:26:51.087Z,954.99
2016-09-04T11:27:43.610Z,955.02
2016-09-04T11:28:46.386Z,955.05
2016-09-04T11:29:50.017Z,955.04
2016-09-04T11:30:40.921Z,955.00
2016-09-04T11:31:45.775Z,955.02
2016-09-04T11:32:26.277Z,955.01
2016-09-04T11:33:48.160Z,955.09
2016-09-04T11:34:45.243Z,955.04
2016-09-04T11:35:45.523Z,955.07
2016-09-04T11:36:37.619Z,955.07
2016-09-04T11:37:45.660Z,955.05
2016-09-04T11:38:44.997Z,955.05
2016-09-04T11:40:03.065Z,955.13
2016-09-04T11:40:51.650Z,955.03
2016-09-04T11:41:49.261Z,955.14
2016-09-04T11:42:50.339Z,955.03
2016-09-04T11:43:46.640Z,955.04
2016-09-04T11:44:50.037Z,955.06
2016-09-04T11:45:42.918Z,955.01
2016-09-04T11:46:38.459Z,955.05
2016-09-04T11:47:50.912Z,955.00
2016-09-04T11:48:47.427Z,954.98
2016-09-04T11:49:45.180Z,955.03
2016-09-04T11:50:45.194Z,954.96
2016-09-04T11:52:00.350Z,955.03
2016-09-04T11:52:50.549Z,955.01
2016-09-04T11:53:44.807Z,954.98
2016-09-04T11:54:45.640Z,954.97
2016-09-04T11:55:50.575Z,954.97
2016-09-04T11:56:40.042Z,954.91
2016-09-04T11:57:50.582Z,954.88
2016-09-04T11:58:33.042Z,954.85
2016-09-04T11:59:44.541Z,954.87
2016-09-04T12:00:56.360Z,954.85
2016-09-04T12:01:45.209Z,954.83
2016-09-04T12:02:37.201Z,954.84
2016-09-04T12:03:37.018Z,954.78
2016-09-04T12:04:47.165Z,954.80
2016-09-04T12:05:45.855Z,954.72
2016-09-04T12:06:44.817Z,954.74
2016-09-04T12:07:46.989Z,954.79
2016-09-04T12:08:50.680Z,954.81
2016-09-04T12:09:40.618Z,954.77
2016-09-04T12:10:46.708Z,954.83
2016-09-04T12:11:49.841Z,954.81
2016-09-04T12:12:44.013Z,954.80
2016-09-04T12:13:56.869Z,954.80
2016-09-04T12:14:14.314Z,954.79
2016-09-04T12:15:45.602Z,954.88
2016-09-04T12:16:33.930Z,954.89
2016-09-04T12:17:40.056Z,954.91
2016-09-04T12:18:21.216Z,954.90
2016-09-04T12:19:39.041Z,954.91
2016-09-04T12:20:46.751Z,954.90
2016-09-04T12:21:49.742Z,954.86
2016-09-04T12:22:50.139Z,954.90
2016-09-04T12:23:51.421Z,954.90
2016-09-04T12:24:49.168Z,954.91
2016-09-04T12:25:22.074Z,954.87
2016-09-04T12:26:27.868Z,954.91
2016-09-04T12:27:45.310Z,954.90
2016-09-04T12:28:37.358Z,954.91